Time;durP1;ratioP1;P1;durP2;ratioP2;P2;SDS_P1;SDS_P2;PMS_P1;PMS_P2;Temp;Humidity;BMP_temperature;BMP_pressure;BME280_temperature;BME280_humidity;BME280_pressure;Samples;Min_cycle;Max_cycle;Signal;HPM_P1;HPM_P2
2022/09/02 00:00:39;;;;;;;0.95;0.17;;;16.70;99.90;;;;;;5098675;27;20678;-68
2022/09/02 00:03:05;;;;;;;2.08;0.20;;;16.70;99.90;;;;;;5099406;27;20493;-69
2022/09/02 00:05:31;;;;;;;2.22;0.20;;;16.70;99.90;;;;;;5081078;27;20139;-68
2022/09/02 00:07:56;;;;;;;1.58;0.10;;;16.70;99.90;;;;;;5081663;27;20366;-69
2022/09/02 00:10:22;;;;;;;1.25;0.30;;;16.70;99.90;;;;;;5081687;27;20066;-68
2022/09/02 00:12:48;;;;;;;2.22;0.13;;;16.70;99.90;;;;;;5098704;27;20153;-69
2022/09/02 00:15:14;;;;;;;0.98;0.13;;;16.60;99.90;;;;;;5081956;27;20054;-69
2022/09/02 00:17:39;;;;;;;2.72;0.20;;;16.60;99.90;;;;;;5098066;27;20038;-70
2022/09/02 00:20:05;;;;;;;2.25;0.20;;;16.60;99.90;;;;;;5082146;27;20041;-71
2022/09/02 00:22:31;;;;;;;0.82;0.10;;;16.60;99.90;;;;;;5081772;27;20046;-70
2022/09/02 00:24:57;;;;;;;2.60;0.20;;;16.60;99.90;;;;;;5098430;27;20035;-70
2022/09/02 00:27:23;;;;;;;1.48;0.20;;;16.60;99.90;;;;;;5061490;27;20043;-70
2022/09/02 00:29:48;;;;;;;0.85;0.20;;;16.60;99.90;;;;;;5078241;27;20035;-70
2022/09/02 00:32:14;;;;;;;2.95;0.20;;;16.50;99.90;;;;;;5095173;27;20043;-71
2022/09/02 00:34:40;;;;;;;1.25;0.20;;;16.50;99.90;;;;;;5077348;27;20050;-69
2022/09/02 00:37:05;;;;;;;3.38;0.17;;;16.40;99.90;;;;;;5094853;27;20074;-70
2022/09/02 00:39:31;;;;;;;2.15;0.20;;;16.50;99.90;;;;;;5044645;27;20045;-71
2022/09/02 00:41:57;;;;;;;2.92;0.30;;;16.40;99.90;;;;;;5094626;27;20480;-70
2022/09/02 00:44:23;;;;;;;1.27;0.20;;;16.30;99.90;;;;;;5094833;27;20487;-71
2022/09/02 00:46:48;;;;;;;1.77;0.20;;;16.30;99.90;;;;;;5094680;27;20043;-70
2022/09/02 00:49:27;;;;;;;0.30;0.20;;;16.30;99.90;;;;;;5077525;27;20047;-71
2022/09/02 00:52:09;;;;;;;2.83;0.20;;;16.20;99.90;;;;;;5095176;27;20050;-70
2022/09/02 00:54:42;;;;;;;1.10;0.20;;;16.20;99.90;;;;;;5112980;27;20311;-70
2022/09/02 00:57:14;;;;;;;2.95;0.30;;;16.20;99.90;;;;;;5095052;27;20047;-71
2022/09/02 01:00:07;;;;;;;1.58;0.20;;;16.20;99.90;;;;;;5095101;27;21018;-71
2022/09/02 01:02:36;;;;;;;3.08;0.30;;;16.20;99.90;;;;;;5094346;27;20433;-70
2022/09/02 01:05:04;;;;;;;2.30;0.20;;;16.10;99.90;;;;;;5094463;27;20066;-71
2022/09/02 01:07:33;;;;;;;2.35;0.17;;;16.10;99.90;;;;;;5077672;27;20207;-70
2022/09/02 01:10:00;;;;;;;1.75;0.30;;;16.10;99.90;;;;;;5094959;27;20070;-71
2022/09/02 01:12:29;;;;;;;2.70;0.20;;;16.00;99.90;;;;;;5090847;28;20047;-71
2022/09/02 01:14:56;;;;;;;1.02;0.20;;;16.10;99.90;;;;;;5091216;28;20036;-73
2022/09/02 01:17:24;;;;;;;1.67;0.30;;;16.10;99.90;;;;;;5074166;28;20577;-71
2022/09/02 01:19:55;;;;;;;4.40;0.20;;;16.00;99.90;;;;;;5057938;28;20261;-71
2022/09/02 01:22:30;;;;;;;2.42;0.20;;;16.00;99.90;;;;;;5090974;28;20166;-71
2022/09/02 01:25:01;;;;;;;2.15;0.20;;;16.00;99.90;;;;;;5074006;28;20051;-70
2022/09/02 01:27:27;;;;;;;0.68;0.20;;;15.90;99.90;;;;;;5090585;28;20051;-71
2022/09/02 01:29:54;;;;;;;2.95;0.20;;;15.90;99.90;;;;;;5090746;28;20035;-72
2022/09/02 01:32:21;;;;;;;1.58;0.20;;;15.80;99.90;;;;;;5090562;28;20347;-71
2022/09/02 01:34:47;;;;;;;2.75;0.30;;;15.80;99.90;;;;;;5090214;28;20415;-71
2022/09/02 01:37:13;;;;;;;2.75;0.30;;;15.80;99.90;;;;;;5090523;28;20138;-70
2022/09/02 01:39:39;;;;;;;1.23;0.20;;;15.80;99.90;;;;;;5090305;28;20054;-71
2022/09/02 01:42:05;;;;;;;3.50;0.45;;;15.80;99.90;;;;;;5090811;28;20319;-70
2022/09/02 01:44:33;;;;;;;2.15;0.20;;;15.80;99.90;;;;;;5090209;28;20130;-70
2022/09/02 01:46:59;;;;;;;0.73;0.20;;;15.80;99.90;;;;;;5090396;28;20560;-70
2022/09/02 01:49:25;;;;;;;0.57;0.20;;;15.80;99.90;;;;;;5073713;28;20338;-70
2022/09/02 01:51:54;;;;;;;2.08;0.30;;;15.90;99.90;;;;;;5089881;28;20096;-70
2022/09/02 01:54:19;;;;;;;3.42;0.28;;;15.80;99.90;;;;;;5073238;28;20040;-70
2022/09/02 01:56:46;;;;;;;2.67;0.20;;;15.80;99.90;;;;;;5089834;28;20490;-71
2022/09/02 01:59:16;;;;;;;3.28;0.20;;;15.80;99.90;;;;;;5090147;28;20094;-70
2022/09/02 02:01:46;;;;;;;1.98;0.22;;;15.70;99.90;;;;;;5090451;28;20659;-71
2022/09/02 02:04:12;;;;;;;2.40;0.20;;;15.80;99.90;;;;;;5093459;28;20501;-71
2022/09/02 02:06:43;;;;;;;3.60;0.25;;;15.80;99.90;;;;;;5093948;28;20677;-71
2022/09/02 02:09:10;;;;;;;1.98;0.20;;;15.80;99.90;;;;;;5094396;28;20330;-70
2022/09/02 02:11:37;;;;;;;1.60;0.20;;;15.80;99.90;;;;;;5094056;28;20044;-71
2022/09/02 02:14:04;;;;;;;1.40;0.30;;;15.80;99.90;;;;;;5094796;28;20052;-71
2022/09/02 02:16:30;;;;;;;2.55;0.20;;;15.70;99.90;;;;;;5077662;28;20389;-71
2022/09/02 02:18:56;;;;;;;2.20;0.30;;;15.70;99.90;;;;;;5077004;28;20047;-70
2022/09/02 02:21:22;;;;;;;1.13;0.20;;;15.70;99.90;;;;;;5077263;28;20663;-70
2022/09/02 02:23:48;;;;;;;2.47;0.20;;;15.70;99.90;;;;;;5094065;28;20039;-71
2022/09/02 02:26:14;;;;;;;1.67;0.20;;;15.70;99.90;;;;;;5094158;28;20070;-71
2022/09/02 02:28:39;;;;;;;0.60;0.20;;;15.70;99.90;;;;;;5094768;28;20632;-72
2022/09/02 02:31:05;;;;;;;1.92;0.30;;;15.60;99.90;;;;;;5094471;28;20122;-68
2022/09/02 02:33:34;;;;;;;2.72;0.20;;;15.60;99.90;;;;;;5078117;28;20477;-68
2022/09/02 02:36:03;;;;;;;1.35;0.10;;;15.60;99.90;;;;;;5095060;28;20422;-69
2022/09/02 02:38:29;;;;;;;1.67;0.22;;;15.60;99.90;;;;;;5095461;28;20093;-69
2022/09/02 02:40:56;;;;;;;1.05;0.30;;;15.60;99.90;;;;;;5095024;28;20056;-69
2022/09/02 02:43:23;;;;;;;0.65;0.20;;;15.50;99.90;;;;;;5095936;28;20126;-68
2022/09/02 02:45:49;;;;;;;1.02;0.22;;;15.50;99.90;;;;;;5078198;28;20126;-69
2022/09/02 02:48:15;;;;;;;1.27;0.20;;;15.50;99.90;;;;;;5095001;28;20509;-69
2022/09/02 02:50:41;;;;;;;1.80;0.22;;;15.50;99.90;;;;;;5095165;28;20373;-69
2022/09/02 02:53:07;;;;;;;2.25;0.30;;;15.50;99.90;;;;;;5094581;28;20544;-69
2022/09/02 02:55:33;;;;;;;0.85;0.20;;;15.50;99.90;;;;;;5078487;28;20054;-68
2022/09/02 02:58:00;;;;;;;3.95;0.30;;;15.50;99.90;;;;;;5095577;28;20466;-69
2022/09/02 03:00:29;;;;;;;1.02;0.20;;;15.40;99.90;;;;;;5094460;28;20055;-68
2022/09/02 03:02:57;;;;;;;1.33;0.30;;;15.40;99.90;;;;;;5077754;28;20043;-69
2022/09/02 03:05:23;;;;;;;2.30;0.30;;;15.40;99.90;;;;;;5094272;28;20040;-68
2022/09/02 03:07:49;;;;;;;0.40;0.10;;;15.40;99.90;;;;;;5094311;28;20082;-69
2022/09/02 03:10:15;;;;;;;1.45;0.20;;;15.40;99.90;;;;;;5078348;27;20331;-68
2022/09/02 03:12:43;;;;;;;0.70;0.20;;;15.40;99.90;;;;;;5080798;27;20123;-68
2022/09/02 03:15:10;;;;;;;2.40;0.20;;;15.30;99.90;;;;;;5097408;27;20046;-68
2022/09/02 03:17:37;;;;;;;1.13;0.30;;;15.40;99.90;;;;;;5080925;27;20260;-69
2022/09/02 03:20:04;;;;;;;1.42;0.30;;;15.40;99.90;;;;;;5097607;27;20047;-68
2022/09/02 03:22:30;;;;;;;1.30;0.20;;;15.30;99.90;;;;;;5081006;27;21288;-68
2022/09/02 03:24:56;;;;;;;1.20;0.20;;;15.30;99.90;;;;;;5098317;27;20050;-70
2022/09/02 03:27:21;;;;;;;1.02;0.28;;;15.30;99.90;;;;;;5064057;27;20043;-69
2022/09/02 03:29:47;;;;;;;2.70;0.30;;;15.30;99.90;;;;;;5098077;27;20126;-71
2022/09/02 03:32:13;;;;;;;2.35;0.20;;;15.30;99.90;;;;;;5097403;27;20035;-68
2022/09/02 03:34:40;;;;;;;2.03;0.30;;;15.30;99.90;;;;;;5097575;27;20175;-67
2022/09/02 03:37:07;;;;;;;1.30;0.30;;;15.30;99.90;;;;;;5080184;27;20042;-69
2022/09/02 03:39:33;;;;;;;0.90;0.22;;;15.20;99.90;;;;;;5081692;27;20051;-68
2022/09/02 03:41:58;;;;;;;2.45;0.40;;;15.30;99.90;;;;;;5097931;27;20484;-69
2022/09/02 03:44:24;;;;;;;1.85;0.30;;;15.20;99.90;;;;;;5097262;27;20720;-68
2022/09/02 03:46:50;;;;;;;2.08;0.30;;;15.20;99.90;;;;;;5097609;27;20180;-68
2022/09/02 03:49:16;;;;;;;1.67;0.22;;;15.20;99.90;;;;;;5063141;27;20047;-68
2022/09/02 03:51:42;;;;;;;0.95;0.20;;;15.20;99.90;;;;;;5063689;27;20180;-69
2022/09/02 03:54:09;;;;;;;1.70;0.43;;;15.20;99.90;;;;;;5097361;27;20075;-69
2022/09/02 03:56:35;;;;;;;1.13;0.30;;;15.20;99.90;;;;;;5064072;27;20046;-69
2022/09/02 03:59:01;;;;;;;1.02;0.30;;;15.20;99.90;;;;;;5079151;27;20528;-69
2022/09/02 04:01:27;;;;;;;0.70;0.20;;;15.10;99.90;;;;;;5096709;27;20079;-69
2022/09/02 04:03:53;;;;;;;1.27;0.38;;;15.10;99.90;;;;;;5096107;27;20039;-69
2022/09/02 04:06:22;;;;;;;1.35;0.30;;;15.00;99.90;;;;;;5096957;27;20078;-69
2022/09/02 04:08:48;;;;;;;1.88;0.30;;;15.10;99.90;;;;;;5080474;27;20035;-69
2022/09/02 04:11:17;;;;;;;1.55;0.32;;;15.10;99.90;;;;;;5096131;27;20059;-69
2022/09/02 04:13:44;;;;;;;4.00;0.35;;;15.00;99.90;;;;;;5062713;27;20131;-68
2022/09/02 04:16:16;;;;;;;1.20;0.30;;;15.00;99.90;;;;;;5095590;27;20039;-69
2022/09/02 04:18:42;;;;;;;0.73;0.30;;;15.00;99.90;;;;;;5096136;27;20145;-68
2022/09/02 04:21:09;;;;;;;1.00;0.30;;;15.00;99.90;;;;;;5096289;27;20713;-68
2022/09/02 04:23:36;;;;;;;1.20;0.30;;;14.90;99.90;;;;;;5096704;27;20782;-69
2022/09/02 04:26:12;;;;;;;1.88;0.30;;;14.90;99.90;;;;;;5094618;28;20039;-68
2022/09/02 04:28:38;;;;;;;1.40;0.30;;;14.90;99.90;;;;;;5078651;27;20070;-67
2022/09/02 04:31:06;;;;;;;3.65;0.30;;;14.90;99.90;;;;;;5062543;27;20042;-67
2022/09/02 04:33:33;;;;;;;1.60;0.30;;;14.90;99.90;;;;;;5095993;27;20407;-68
2022/09/02 04:35:58;;;;;;;1.67;0.40;;;14.90;99.90;;;;;;5077891;27;20051;-68
2022/09/02 04:38:24;;;;;;;1.63;0.38;;;14.90;99.90;;;;;;5077263;27;20417;-68
2022/09/02 04:40:50;;;;;;;2.10;0.32;;;14.80;99.90;;;;;;5060695;27;20219;-67
2022/09/02 04:43:16;;;;;;;1.45;0.30;;;14.80;99.90;;;;;;5094272;27;20043;-68
2022/09/02 04:45:44;;;;;;;1.95;0.40;;;14.80;99.90;;;;;;5077594;27;20039;-68
2022/09/02 04:48:10;;;;;;;3.00;0.40;;;14.70;99.90;;;;;;5113356;27;20038;-68
2022/09/02 04:50:40;;;;;;;2.17;0.30;;;14.60;99.90;;;;;;5095276;27;20134;-68
2022/09/02 04:53:06;;;;;;;0.85;0.38;;;14.60;99.90;;;;;;5094362;27;20046;-68
2022/09/02 04:55:33;;;;;;;2.30;0.30;;;14.70;99.90;;;;;;5112839;27;20289;-68
2022/09/02 04:57:59;;;;;;;0.88;0.40;;;14.60;99.90;;;;;;5094347;27;20065;-68
2022/09/02 05:00:25;;;;;;;1.98;0.30;;;14.70;99.90;;;;;;5077380;27;20050;-68
2022/09/02 05:02:53;;;;;;;1.23;0.30;;;14.60;99.90;;;;;;5095348;27;20715;-68
2022/09/02 05:05:18;;;;;;;1.48;0.40;;;14.60;99.90;;;;;;5060105;27;20663;-68
2022/09/02 05:07:44;;;;;;;0.90;0.22;;;14.60;99.90;;;;;;5093788;27;20515;-69
2022/09/02 05:10:12;;;;;;;1.20;0.38;;;14.60;99.90;;;;;;5059818;27;20343;-67
2022/09/02 05:12:40;;;;;;;2.58;0.38;;;14.70;99.90;;;;;;5094120;27;20082;-68
2022/09/02 05:15:07;;;;;;;0.73;0.38;;;14.60;99.90;;;;;;5094474;27;20611;-69
2022/09/02 05:17:34;;;;;;;2.13;0.30;;;14.70;99.90;;;;;;5094371;27;20803;-68
2022/09/02 05:20:00;;;;;;;0.90;0.30;;;14.60;99.90;;;;;;5077269;27;20046;-68
2022/09/02 05:22:28;;;;;;;1.02;0.32;;;14.60;99.90;;;;;;5076690;27;20051;-69
2022/09/02 05:24:55;;;;;;;0.63;0.30;;;14.60;99.90;;;;;;5093590;27;20055;-68
2022/09/02 05:27:22;;;;;;;2.55;0.40;;;14.60;99.90;;;;;;5095724;27;20579;-69
2022/09/02 05:29:48;;;;;;;3.75;0.40;;;14.60;99.90;;;;;;5061847;27;20046;-69
2022/09/02 05:32:14;;;;;;;1.17;0.40;;;14.70;99.90;;;;;;5078274;27;20084;-70
2022/09/02 05:34:40;;;;;;;1.63;0.28;;;14.70;99.90;;;;;;5060957;27;20039;-69
2022/09/02 05:37:06;;;;;;;2.35;0.30;;;14.80;99.90;;;;;;5095481;27;20569;-70
2022/09/02 05:39:32;;;;;;;0.93;0.35;;;14.70;99.90;;;;;;5078014;28;20095;-70
2022/09/02 05:41:58;;;;;;;2.28;0.47;;;14.80;99.90;;;;;;5077553;28;20459;-70
2022/09/02 05:44:24;;;;;;;3.00;0.47;;;15.00;99.90;;;;;;5095283;28;20051;-69
2022/09/02 05:46:50;;;;;;;1.38;0.30;;;15.20;99.90;;;;;;5077698;28;20108;-69
2022/09/02 05:49:16;;;;;;;1.80;0.40;;;15.40;99.90;;;;;;5095368;28;20435;-69
2022/09/02 05:51:52;;;;;;;1.90;0.38;;;15.50;99.90;;;;;;5078242;28;20258;-70
2022/09/02 05:54:24;;;;;;;2.35;0.30;;;15.70;99.90;;;;;;5094647;28;20042;-69
2022/09/02 05:56:55;;;;;;;0.73;0.30;;;15.80;99.90;;;;;;5078246;28;20051;-69
2022/09/02 05:59:22;;;;;;;1.15;0.30;;;15.90;99.90;;;;;;5077893;28;20583;-69
2022/09/02 06:01:49;;;;;;;0.60;0.30;;;15.80;99.90;;;;;;5113586;28;20047;-69
2022/09/02 06:04:15;;;;;;;1.40;0.35;;;15.90;99.90;;;;;;5077424;28;20641;-70
2022/09/02 06:06:41;;;;;;;2.55;0.30;;;15.80;99.90;;;;;;5094435;28;20559;-69
2022/09/02 06:09:09;;;;;;;2.78;0.47;;;16.00;99.90;;;;;;5061486;28;20115;-70
2022/09/02 06:11:38;;;;;;;2.15;0.47;;;16.00;99.90;;;;;;5096036;28;20416;-69
2022/09/02 06:14:06;;;;;;;1.55;0.30;;;16.00;99.90;;;;;;5062005;28;20043;-69
2022/09/02 06:16:34;;;;;;;1.30;0.40;;;16.20;99.90;;;;;;5077593;28;20074;-69
2022/09/02 06:19:02;;;;;;;1.05;0.30;;;16.20;99.90;;;;;;5060828;28;20058;-70
2022/09/02 06:21:28;;;;;;;0.98;0.50;;;16.30;99.90;;;;;;5094630;28;20051;-70
2022/09/02 06:23:54;;;;;;;3.45;0.35;;;16.40;99.90;;;;;;5094726;28;20062;-69
2022/09/02 06:26:20;;;;;;;1.45;0.38;;;16.50;99.90;;;;;;5060235;28;20043;-69
2022/09/02 06:28:46;;;;;;;2.35;0.40;;;16.50;99.90;;;;;;5094113;28;20357;-70
2022/09/02 06:31:15;;;;;;;1.77;0.45;;;16.60;99.90;;;;;;5077331;28;20135;-69
2022/09/02 06:33:43;;;;;;;0.70;0.32;;;16.70;99.90;;;;;;5093581;28;20330;-71
2022/09/02 06:36:14;;;;;;;1.25;0.30;;;16.90;99.90;;;;;;5093999;28;20035;-70
2022/09/02 06:38:42;;;;;;;2.53;0.30;;;16.90;99.90;;;;;;5094086;28;20104;-70
2022/09/02 06:41:11;;;;;;;1.33;0.30;;;17.00;99.90;;;;;;5060647;28;20206;-70
2022/09/02 06:43:37;;;;;;;2.75;0.40;;;17.10;99.90;;;;;;5094395;28;20031;-69
2022/09/02 06:46:04;;;;;;;3.00;0.30;;;17.10;99.90;;;;;;5077129;28;20391;-70
2022/09/02 06:48:29;;;;;;;3.08;0.43;;;17.20;99.90;;;;;;5095772;28;20070;-70
2022/09/02 06:50:55;;;;;;;2.20;0.30;;;17.20;99.90;;;;;;5097625;27;20189;-69
2022/09/02 06:53:21;;;;;;;1.45;0.50;;;17.20;99.90;;;;;;5098563;27;20465;-69
2022/09/02 06:55:47;;;;;;;1.67;0.60;;;17.20;99.90;;;;;;5081500;27;20529;-70
2022/09/02 06:58:14;;;;;;;1.80;0.50;;;17.30;99.90;;;;;;5081460;27;20093;-70
2022/09/02 07:00:40;;;;;;;2.63;0.40;;;17.40;99.90;;;;;;5098606;27;20053;-70
2022/09/02 07:06:03;;;;;;;4.20;0.50;;;17.40;99.90;;;;;;5099089;27;20116;-70
2022/09/02 07:08:29;;;;;;;2.17;0.50;;;17.50;99.90;;;;;;5098719;27;20497;-69
2022/09/02 07:10:55;;;;;;;1.38;0.50;;;17.60;99.90;;;;;;5073020;28;20095;-70
2022/09/02 07:13:21;;;;;;;1.73;0.68;;;17.80;99.90;;;;;;5075562;28;20439;-69
2022/09/02 07:15:46;;;;;;;3.90;0.60;;;18.00;99.90;;;;;;5074201;28;20123;-70
2022/09/02 07:18:12;;;;;;;2.63;0.57;;;17.90;99.90;;;;;;5074176;28;20359;-69
2022/09/02 07:20:38;;;;;;;3.22;0.47;;;18.00;99.90;;;;;;5073447;28;20051;-69
2022/09/02 07:23:04;;;;;;;1.98;0.40;;;18.30;99.90;;;;;;5057036;28;20044;-71
2022/09/02 07:25:30;;;;;;;1.27;0.43;;;18.50;99.90;;;;;;5074022;28;20359;-69
2022/09/02 07:27:56;;;;;;;0.73;0.30;;;18.50;99.90;;;;;;5074306;28;20161;-70
2022/09/02 07:30:22;;;;;;;1.60;0.30;;;18.70;99.90;;;;;;5073860;28;20112;-70
2022/09/02 07:32:48;;;;;;;1.33;0.47;;;18.70;99.90;;;;;;5073746;28;20039;-70
2022/09/02 07:35:14;;;;;;;0.93;0.60;;;18.80;99.90;;;;;;5073652;28;20047;-70
2022/09/02 07:37:39;;;;;;;2.10;0.32;;;18.80;99.90;;;;;;5073980;28;20048;-70
2022/09/02 07:40:09;;;;;;;2.40;0.30;;;18.90;99.90;;;;;;5074163;28;20525;-69
2022/09/02 07:42:35;;;;;;;1.33;0.40;;;19.10;99.90;;;;;;5073454;28;20051;-70
2022/09/02 07:45:01;;;;;;;1.30;0.30;;;19.20;99.90;;;;;;5073150;28;20055;-70
2022/09/02 07:47:27;;;;;;;2.70;0.40;;;19.30;99.90;;;;;;5073068;28;20051;-70
2022/09/02 07:49:53;;;;;;;3.55;0.32;;;19.30;99.90;;;;;;5073540;28;20040;-70
2022/09/02 07:52:18;;;;;;;1.98;0.30;;;19.10;99.90;;;;;;5056350;28;20339;-70
2022/09/02 07:54:44;;;;;;;3.15;0.30;;;19.20;99.90;;;;;;5057330;28;20241;-70
2022/09/02 07:57:10;;;;;;;1.00;0.30;;;19.30;99.90;;;;;;5074076;28;20301;-70
2022/09/02 07:59:35;;;;;;;1.45;0.30;;;19.50;99.90;;;;;;5073347;28;20048;-70
2022/09/02 08:02:01;;;;;;;3.05;0.30;;;19.80;99.90;;;;;;5055822;28;20044;-69
2022/09/02 08:04:27;;;;;;;1.60;0.40;;;19.80;99.90;;;;;;5072540;28;20048;-69
2022/09/02 08:06:53;;;;;;;1.45;0.40;;;20.00;99.90;;;;;;5072858;28;20032;-70
2022/09/02 08:09:21;;;;;;;1.35;0.30;;;20.10;99.90;;;;;;5072987;28;20044;-70
2022/09/02 08:11:49;;;;;;;2.28;0.40;;;20.20;99.90;;;;;;5087535;28;20474;-70
2022/09/02 08:14:18;;;;;;;3.30;0.43;;;20.30;99.90;;;;;;5076168;28;20147;-70
2022/09/02 08:16:44;;;;;;;3.42;0.40;;;20.60;99.90;;;;;;5094025;28;20055;-70
2022/09/02 08:19:11;;;;;;;1.77;0.50;;;20.40;99.90;;;;;;5092380;28;20084;-70
2022/09/02 08:21:37;;;;;;;1.40;0.30;;;20.60;99.90;;;;;;5093598;28;20514;-72
2022/09/02 08:24:02;;;;;;;1.27;0.30;;;20.60;99.90;;;;;;5092573;28;20073;-71
2022/09/02 08:26:28;;;;;;;1.98;0.32;;;20.70;99.90;;;;;;5093312;28;20208;-71
2022/09/02 08:28:55;;;;;;;2.08;0.38;;;20.60;99.90;;;;;;5075991;28;20077;-70
2022/09/02 08:31:20;;;;;;;1.75;0.60;;;20.90;99.90;;;;;;5093320;28;20375;-70
2022/09/02 08:33:46;;;;;;;1.95;0.30;;;21.30;99.90;;;;;;5092148;28;20043;-70
2022/09/02 08:36:13;;;;;;;1.15;0.30;;;21.30;99.90;;;;;;5092323;28;20044;-70
2022/09/02 08:38:41;;;;;;;1.30;0.30;;;21.40;99.90;;;;;;5092517;28;20295;-70
2022/09/02 08:41:24;;;;;;;1.42;0.30;;;21.30;99.90;;;;;;5093424;28;20134;-69
2022/09/02 08:43:57;;;;;;;1.55;0.30;;;21.20;99.90;;;;;;5093039;28;20043;-69
2022/09/02 08:46:26;;;;;;;1.80;0.43;;;21.10;99.90;;;;;;5092945;28;20048;-70
2022/09/02 08:48:51;;;;;;;3.17;0.30;;;21.40;99.90;;;;;;5094205;28;20238;-70
2022/09/02 08:51:35;;;;;;;1.05;0.30;;;21.20;99.90;;;;;;5093621;28;20048;-70
2022/09/02 08:54:29;;;;;;;0.50;0.20;;;21.30;99.90;;;;;;5092639;28;20263;-70
2022/09/02 08:56:55;;;;;;;2.15;0.40;;;21.30;99.90;;;;;;5092403;28;20234;-70
2022/09/02 08:59:26;;;;;;;0.98;0.32;;;21.20;99.90;;;;;;5093427;28;20044;-70
2022/09/02 09:02:01;;;;;;;1.52;0.35;;;21.40;99.90;;;;;;5076557;28;20600;-70
2022/09/02 09:04:44;;;;;;;1.40;0.40;;;21.30;99.90;;;;;;5093726;28;20079;-69
2022/09/02 09:07:45;;;;;;;3.13;0.47;;;21.40;99.90;;;;;;5093560;28;20437;-70
2022/09/02 09:10:18;;;;;;;4.30;0.50;;;21.60;99.90;;;;;;5093009;28;20387;-70
2022/09/02 09:13:02;;;;;;;1.50;0.30;;;21.70;99.90;;;;;;5097500;27;20051;-69
2022/09/02 09:15:43;;;;;;;2.67;0.40;;;21.70;99.90;;;;;;5097590;27;20092;-70
2022/09/02 09:18:15;;;;;;;2.83;0.43;;;21.90;99.90;;;;;;5096520;27;20035;-70
2022/09/02 09:20:42;;;;;;;3.10;0.40;;;22.00;99.90;;;;;;5097094;27;20054;-70
2022/09/02 09:23:28;;;;;;;2.53;0.40;;;22.40;99.90;;;;;;5096539;27;20832;-70
2022/09/02 09:26:04;;;;;;;2.85;0.40;;;22.50;99.90;;;;;;5115640;27;20357;-70
2022/09/02 09:28:30;;;;;;;3.25;0.40;;;22.50;99.90;;;;;;5097047;27;20312;-70
2022/09/02 09:30:59;;;;;;;1.40;0.30;;;22.60;99.90;;;;;;5097197;27;20047;-70
2022/09/02 09:33:24;;;;;;;2.08;0.45;;;22.40;99.10;;;;;;5079997;27;20035;-70
2022/09/02 09:35:53;;;;;;;2.22;0.40;;;22.70;98.00;;;;;;5062088;28;20058;-70
2022/09/02 09:38:34;;;;;;;3.55;0.50;;;22.60;98.50;;;;;;5096711;28;20341;-70
2022/09/02 09:41:11;;;;;;;3.63;0.47;;;22.80;99.30;;;;;;5097736;27;20057;-69
2022/09/02 09:43:36;;;;;;;2.67;0.50;;;23.00;98.00;;;;;;5099270;27;20043;-68
2022/09/02 09:46:23;;;;;;;2.83;0.47;;;23.20;96.90;;;;;;5078787;28;20130;-68
2022/09/02 09:48:50;;;;;;;1.90;0.52;;;23.30;95.30;;;;;;5095934;28;20035;-69
2022/09/02 09:51:16;;;;;;;2.58;0.68;;;23.20;96.40;;;;;;5079621;28;20107;-68
2022/09/02 09:53:42;;;;;;;2.15;0.40;;;23.10;95.60;;;;;;5096451;28;20043;-67
2022/09/02 09:56:14;;;;;;;2.45;0.50;;;23.40;95.10;;;;;;5078981;28;20058;-67
2022/09/02 09:58:40;;;;;;;3.77;0.50;;;23.60;95.50;;;;;;5096299;28;20078;-68
2022/09/02 10:01:24;;;;;;;2.95;0.50;;;23.80;94.10;;;;;;5097303;28;20134;-68
2022/09/02 10:04:23;;;;;;;1.52;0.65;;;23.80;94.80;;;;;;5078646;28;20039;-68
2022/09/02 10:06:49;;;;;;;3.95;0.50;;;24.00;93.70;;;;;;5096150;28;20112;-68
2022/09/02 10:09:30;;;;;;;3.38;0.60;;;24.10;92.80;;;;;;5062754;28;20380;-69
2022/09/02 10:12:00;;;;;;;1.95;0.43;;;24.20;93.70;;;;;;5079443;28;20752;-69
2022/09/02 10:14:35;;;;;;;7.15;0.50;;;24.40;92.30;;;;;;5079700;28;20536;-68
2022/09/02 10:17:32;;;;;;;1.80;0.50;;;24.40;92.70;;;;;;5095909;28;20043;-68
2022/09/02 10:20:11;;;;;;;3.90;0.50;;;24.50;92.10;;;;;;5096289;28;20065;-68
2022/09/02 10:23:03;;;;;;;2.17;0.63;;;24.50;91.30;;;;;;5095790;28;20122;-68
2022/09/02 10:25:35;;;;;;;1.93;0.40;;;24.80;91.10;;;;;;5072757;27;20051;-68
2022/09/02 10:28:20;;;;;;;3.22;0.95;;;25.00;89.90;;;;;;5100576;27;20585;-68
2022/09/02 10:31:16;;;;;;;3.35;0.60;;;25.30;88.20;;;;;;5099695;27;20042;-69
2022/09/02 10:34:08;;;;;;;1.98;0.52;;;25.30;85.00;;;;;;5082884;27;20046;-69
2022/09/02 10:36:48;;;;;;;1.35;0.45;;;25.50;80.10;;;;;;5099584;27;20043;-67
2022/09/02 10:39:17;;;;;;;3.38;0.40;;;25.40;81.30;;;;;;5100973;27;20047;-69
2022/09/02 10:41:47;;;;;;;2.53;0.40;;;25.30;81.70;;;;;;5100094;27;20877;-68
2022/09/02 10:44:30;;;;;;;4.32;0.40;;;25.50;78.20;;;;;;5099632;27;20043;-68
2022/09/02 10:47:10;;;;;;;0.90;0.40;;;25.40;78.60;;;;;;5099653;27;20206;-68
2022/09/02 10:49:58;;;;;;;5.95;0.35;;;25.60;75.60;;;;;;5082994;27;20797;-68
2022/09/02 10:52:44;;;;;;;1.83;0.32;;;25.60;76.10;;;;;;5081959;27;20073;-68
2022/09/02 10:55:36;;;;;;;1.75;0.52;;;25.90;75.10;;;;;;5082146;27;20130;-69
2022/09/02 10:58:24;;;;;;;1.02;0.30;;;26.00;75.20;;;;;;5099427;27;20035;-68
2022/09/02 11:00:54;;;;;;;2.33;0.35;;;26.10;76.30;;;;;;5047083;27;20047;-68
2022/09/02 11:03:23;;;;;;;2.10;0.30;;;26.30;72.40;;;;;;5098585;27;20031;-69
2022/09/02 11:06:05;;;;;;;4.10;0.30;;;26.40;69.50;;;;;;5065092;27;20439;-69
2022/09/02 11:08:39;;;;;;;2.63;0.30;;;26.50;69.80;;;;;;5081334;27;20035;-68
2022/09/02 11:11:10;;;;;;;4.95;0.40;;;26.30;66.70;;;;;;5081609;27;20054;-68
2022/09/02 11:14:04;;;;;;;4.43;0.40;;;26.20;66.80;;;;;;5099013;27;20074;-68
2022/09/02 11:16:38;;;;;;;3.20;0.30;;;26.30;66.40;;;;;;5098013;27;20069;-68
2022/09/02 11:19:17;;;;;;;2.65;0.30;;;26.20;64.60;;;;;;5098110;27;20055;-69
2022/09/02 11:22:04;;;;;;;2.05;0.32;;;26.30;61.40;;;;;;5080871;27;20209;-69
2022/09/02 11:24:40;;;;;;;3.22;0.30;;;26.30;61.60;;;;;;5064276;27;20538;-67
2022/09/02 11:27:16;;;;;;;4.50;0.30;;;26.20;60.20;;;;;;5080222;27;20493;-67
2022/09/02 11:30:01;;;;;;;1.70;0.30;;;26.40;61.90;;;;;;5114951;27;20042;-68
2022/09/02 11:32:49;;;;;;;2.30;0.38;;;26.30;59.60;;;;;;5097561;27;20930;-69
2022/09/02 11:35:26;;;;;;;2.40;0.50;;;26.40;60.50;;;;;;5096910;27;20053;-69
2022/09/02 11:37:56;;;;;;;2.55;0.40;;;26.30;60.60;;;;;;5097428;27;20373;-68
2022/09/02 11:40:34;;;;;;;2.35;0.50;;;26.40;60.00;;;;;;5096795;27;20091;-70
2022/09/02 11:43:18;;;;;;;3.75;0.40;;;26.30;61.70;;;;;;5079824;27;20043;-69
2022/09/02 11:46:09;;;;;;;1.42;0.30;;;26.40;61.00;;;;;;5097038;27;20051;-69
2022/09/02 11:48:47;;;;;;;2.53;0.20;;;26.80;61.20;;;;;;5096450;27;20070;-69
2022/09/02 11:51:37;;;;;;;1.73;0.30;;;26.80;60.60;;;;;;5079981;27;20092;-70
2022/09/02 11:54:05;;;;;;;2.28;0.30;;;26.70;57.50;;;;;;5079683;27;20275;-69
2022/09/02 11:56:38;;;;;;;3.75;0.40;;;26.90;58.70;;;;;;5063286;27;20564;-68
2022/09/02 11:59:06;;;;;;;1.67;0.30;;;27.00;56.20;;;;;;5079827;27;20588;-68
2022/09/02 12:01:38;;;;;;;1.92;0.20;;;26.90;55.50;;;;;;5079117;27;20785;-69
2022/09/02 12:04:12;;;;;;;1.52;0.30;;;26.70;59.00;;;;;;5095964;27;20047;-69
2022/09/02 12:07:10;;;;;;;5.85;0.30;;;26.60;55.60;;;;;;5095817;27;20623;-70
2022/09/02 12:09:42;;;;;;;2.33;0.30;;;26.50;57.90;;;;;;5079150;27;20039;-71
2022/09/02 12:12:08;;;;;;;1.92;0.30;;;26.40;59.10;;;;;;5095836;27;20047;-69
2022/09/02 12:14:46;;;;;;;1.98;0.35;;;26.50;53.80;;;;;;5062495;27;20536;-70
2022/09/02 12:17:36;;;;;;;1.38;0.20;;;26.70;57.10;;;;;;5096618;27;20467;-69
2022/09/02 12:20:07;;;;;;;2.30;0.20;;;26.70;53.60;;;;;;5070316;27;20073;-69
2022/09/02 12:22:38;;;;;;;1.27;0.20;;;26.60;52.90;;;;;;5095938;27;20648;-69
2022/09/02 12:25:24;;;;;;;1.67;0.35;;;26.90;51.60;;;;;;5062398;27;20481;-70
2022/09/02 12:28:08;;;;;;;2.20;0.40;;;26.80;53.80;;;;;;5095401;27;20043;-70
2022/09/02 12:31:06;;;;;;;3.35;0.30;;;26.90;53.10;;;;;;5096046;27;20598;-70
2022/09/02 12:33:33;;;;;;;3.40;0.30;;;26.60;51.30;;;;;;5078653;27;20129;-70
2022/09/02 12:35:59;;;;;;;1.83;0.30;;;26.80;54.10;;;;;;5095336;27;20039;-69
2022/09/02 12:38:39;;;;;;;1.30;0.20;;;26.90;52.00;;;;;;5095340;27;20047;-69
2022/09/02 12:41:04;;;;;;;3.38;0.28;;;26.90;52.30;;;;;;5094889;27;20058;-70
2022/09/02 12:44:04;;;;;;;1.70;0.20;;;27.20;54.80;;;;;;5095275;27;20240;-70
2022/09/02 12:46:44;;;;;;;2.58;0.25;;;27.40;51.40;;;;;;5080714;27;20466;-69
2022/09/02 12:49:44;;;;;;;3.75;0.28;;;27.30;53.20;;;;;;5077251;27;20146;-69
2022/09/02 12:52:33;;;;;;;1.38;0.50;;;26.90;51.80;;;;;;5095251;27;20047;-69
2022/09/02 12:55:03;;;;;;;3.88;0.20;;;27.00;52.80;;;;;;5082107;27;20047;-69
2022/09/02 12:57:44;;;;;;;3.15;0.30;;;26.80;53.00;;;;;;5077975;27;20049;-69
2022/09/02 13:00:27;;;;;;;1.10;0.20;;;27.10;51.70;;;;;;5093968;27;20180;-70
2022/09/02 13:03:08;;;;;;;;;;;27.10;50.90;;;;;;5095143;27;20123;-68
2022/09/02 13:05:55;;;;;;;1.90;0.20;;;27.30;50.40;;;;;;5078001;27;20305;-71
2022/09/02 13:09:07;;;;;;;1.85;0.20;;;27.10;50.00;;;;;;5093707;27;20087;-70